Time;durP1;ratioP1;P1;durP2;ratioP2;P2;SDS_P1;SDS_P2;PMS_P1;PMS_P2;Temp;Humidity;BMP_temperature;BMP_pressure;BME280_temperature;BME280_humidity;BME280_pressure;Samples;Min_cycle;Max_cycle;Signal;HPM_P1;HPM_P2
2021/09/05 00:01:05;;;;;;;;;11.00;10.00;;;;;23.91;64.52;101286.88;5016679;28;45938;-80
2021/09/05 00:03:30;;;;;;;;;14.75;12.25;;;;;23.88;64.82;101288.66;5016672;28;45310;-80
2021/09/05 00:05:56;;;;;;;;;14.25;14.25;;;;;23.86;64.74;101295.72;5017199;28;45354;-80
2021/09/05 00:08:22;;;;;;;;;13.25;13.25;;;;;23.86;64.85;101298.34;5031303;28;45586;-80
2021/09/05 00:10:47;;;;;;;;;15.25;13.00;;;;;23.81;65.03;101298.38;5015992;28;45444;-80
2021/09/05 00:13:13;;;;;;;;;15.50;13.00;;;;;23.74;64.87;101297.50;5016037;28;45308;-80
2021/09/05 00:15:39;;;;;;;;;19.00;14.00;;;;;23.71;65.44;101307.22;5017127;28;45461;-82
2021/09/05 00:18:04;;;;;;;;;16.50;16.50;;;;;23.67;65.28;101306.34;5016660;28;45247;-81
2021/09/05 00:20:30;;;;;;;;;19.00;16.00;;;;;23.66;65.50;101307.22;5016337;28;45370;-83
2021/09/05 00:22:55;;;;;;;;;13.50;12.00;;;;;23.63;65.24;101302.81;5014789;28;45435;-83
2021/09/05 00:25:21;;;;;;;;;20.25;16.00;;;;;23.61;65.27;101298.41;5016197;28;45496;-82
2021/09/05 00:27:46;;;;;;;;;15.00;15.00;;;;;23.59;65.27;101308.97;5015989;28;45362;-81
2021/09/05 00:30:12;;;;;;;;;13.25;13.25;;;;;23.57;66.12;101307.22;5015955;28;45394;-82
2021/09/05 00:32:38;;;;;;;;;15.50;15.00;;;;;23.56;65.74;101305.47;5022115;28;45324;-84
2021/09/05 00:35:05;;;;;;;;;18.50;16.00;;;;;23.57;65.92;101304.59;5019881;28;45361;-84
2021/09/05 00:37:30;;;;;;;;;20.75;16.75;;;;;23.54;65.80;101308.09;5016577;28;45556;-83
2021/09/05 00:39:56;;;;;;;;;22.00;17.00;;;;;23.53;65.93;101305.47;5022112;28;45515;-85
2021/09/05 00:42:27;;;;;;;;;19.50;18.50;;;;;23.50;66.64;101304.56;5035841;28;45279;-86
2021/09/05 00:44:53;;;;;;;;;19.00;17.75;;;;;23.50;65.55;101301.94;5036667;28;45398;-87
2021/09/05 00:47:19;;;;;;;;;18.25;15.25;;;;;23.52;65.99;101287.84;5035758;28;45484;-86
2021/09/05 00:49:45;;;;;;;;;17.25;14.50;;;;;23.54;66.60;101291.38;5029509;28;45389;-85
2021/09/05 00:52:12;;;;;;;;;15.50;14.75;;;;;23.55;66.33;101286.06;5018505;28;45343;-81
2021/09/05 00:54:41;;;;;;;;;18.00;16.00;;;;;23.59;66.30;101279.91;5025837;28;45579;-80
2021/09/05 00:57:18;;;;;;;;;18.00;17.00;;;;;23.58;65.73;101275.50;5017042;28;46099;-83
2021/09/05 00:59:48;;;;;;;;;18.75;15.50;;;;;23.57;65.83;101268.44;5019689;28;45709;-82
2021/09/05 01:02:14;;;;;;;;;17.25;16.25;;;;;23.57;65.96;101280.81;5017647;28;45266;-83
2021/09/05 01:04:40;;;;;;;;;18.00;17.25;;;;;23.59;66.00;101286.97;5019308;28;45573;-81
2021/09/05 01:07:05;;;;;;;;;21.00;16.25;;;;;23.60;65.73;101275.50;5019436;28;45242;-82
2021/09/05 01:09:31;;;;;;;;;15.00;15.00;;;;;23.60;65.86;101291.34;5018854;28;45375;-83
2021/09/05 01:11:59;;;;;;;;;19.50;19.25;;;;;23.58;65.36;101301.06;5019579;28;45402;-83
2021/09/05 01:14:25;;;;;;;;;19.00;17.50;;;;;23.57;66.19;101302.81;5019253;28;45340;-84
2021/09/05 01:16:52;;;;;;;;;19.25;17.00;;;;;23.54;65.82;101308.09;5018844;28;46269;-82
2021/09/05 01:19:20;;;;;;;;;18.75;12.50;;;;;23.49;66.53;101316.03;5018812;28;45262;-82
2021/09/05 01:21:49;;;;;;;;;23.75;20.75;;;;;23.46;66.57;101321.34;5019015;28;45280;-83
2021/09/05 01:24:16;;;;;;;;;21.25;19.75;;;;;23.42;65.90;101321.34;5019445;28;45387;-86
2021/09/05 01:26:44;;;;;;;;;26.75;22.25;;;;;23.40;67.07;101328.38;5019169;28;46555;-83
2021/09/05 01:29:12;;;;;;;;;22.00;19.25;;;;;23.35;66.54;101317.81;5023640;28;45288;-81
2021/09/05 01:31:48;;;;;;;;;22.25;20.75;;;;;23.30;66.82;101327.50;5041113;28;45351;-84
2021/09/05 01:34:16;;;;;;;;;22.00;19.25;;;;;23.26;66.81;101321.34;5038786;28;45346;-81
2021/09/05 01:36:43;;;;;;;;;24.00;21.75;;;;;23.24;67.15;101320.44;5038875;28;45600;-83
2021/09/05 01:39:11;;;;;;;;;23.75;20.25;;;;;23.25;67.30;101321.34;5037496;28;45906;-86
2021/09/05 01:41:37;;;;;;;;;24.50;22.50;;;;;23.26;66.81;101316.03;5040431;28;45344;-84
2021/09/05 01:44:05;;;;;;;;;22.50;22.50;;;;;23.28;66.90;101313.41;5039832;28;45575;-83
2021/09/05 01:46:31;;;;;;;;;23.75;21.50;;;;;23.29;66.56;101309.88;5036089;28;45482;-84
2021/09/05 01:48:58;;;;;;;;;26.50;24.00;;;;;23.29;66.69;101304.59;5037501;28;45321;-82
2021/09/05 01:51:23;;;;;;;;;22.50;19.50;;;;;23.31;66.62;101305.47;5038297;28;45220;-82
2021/09/05 01:53:49;;;;;;;;;20.75;20.00;;;;;23.31;66.69;101306.38;5041389;28;45869;-83
2021/09/05 01:56:15;;;;;;;;;22.25;18.75;;;;;23.32;66.29;101310.75;5039154;28;46080;-83
2021/09/05 01:58:40;;;;;;;;;23.25;22.75;;;;;23.31;66.49;101311.66;5038377;28;45374;-82
2021/09/05 02:01:06;;;;;;;;;22.75;20.50;;;;;23.32;66.70;101317.81;5038770;28;45308;-83
2021/09/05 02:03:32;;;;;;;;;23.50;21.50;;;;;23.32;66.28;101320.47;5038160;28;45536;-84
2021/09/05 02:05:57;;;;;;;;;24.25;22.00;;;;;23.33;66.00;101316.94;5038223;28;45629;-84
2021/09/05 02:08:23;;;;;;;;;23.50;22.50;;;;;23.32;65.93;101315.16;5038749;28;45433;-86
2021/09/05 02:10:48;;;;;;;;;15.75;14.75;;;;;23.29;65.95;101321.34;5036710;28;45343;-86
2021/09/05 02:13:14;;;;;;;;;24.50;20.25;;;;;23.28;65.63;101319.56;5038855;28;45574;-86
2021/09/05 02:15:40;;;;;;;;;24.00;21.50;;;;;23.26;65.85;101323.09;5037665;28;46379;-83
2021/09/05 02:18:06;;;;;;;;;24.50;21.25;;;;;23.25;66.08;101324.00;5039213;28;45405;-84
2021/09/05 02:20:32;;;;;;;;;20.25;18.25;;;;;23.22;65.91;101318.69;5030646;28;45354;-82
2021/09/05 02:22:57;;;;;;;;;24.25;22.75;;;;;23.23;66.12;101318.69;5024877;28;45231;-86
2021/09/05 02:25:23;;;;;;;;;22.25;20.25;;;;;23.23;66.30;101318.69;5022112;28;45575;-88
2021/09/05 02:27:49;;;;;;;;;24.50;22.25;;;;;23.20;66.23;101326.63;5018018;28;45396;-88
2021/09/05 02:30:14;;;;;;;;;21.75;21.50;;;;;23.19;66.07;101323.09;5018022;28;45330;-82
2021/09/05 02:32:40;;;;;;;;;20.50;20.50;;;;;23.22;66.07;101323.97;5018193;28;45348;-82
2021/09/05 02:35:07;;;;;;;;;19.50;18.75;;;;;23.19;66.13;101322.22;5018092;28;46015;-81
2021/09/05 02:37:35;;;;;;;;;20.25;19.75;;;;;23.16;66.08;101324.81;5017442;28;46095;-80
2021/09/05 02:40:02;;;;;;;;;22.00;19.75;;;;;23.14;65.99;101322.19;5034537;28;45414;-80
2021/09/05 02:42:27;;;;;;;;;21.25;19.00;;;;;23.10;65.92;101320.41;5017903;28;45181;-81
2021/09/05 02:44:53;;;;;;;;;21.25;19.00;;;;;23.09;65.24;101318.66;5017295;28;45216;-80
2021/09/05 02:47:18;;;;;;;;;18.50;18.25;;;;;23.06;65.52;101318.63;5017927;28;45394;-79
2021/09/05 02:49:44;;;;;;;;;18.50;18.50;;;;;23.06;65.49;101323.06;5020660;28;45363;-80
2021/09/05 02:52:10;;;;;;;;;17.00;15.00;;;;;23.06;65.41;101330.97;5017759;28;45403;-80
2021/09/05 02:54:39;;;;;;;;;19.75;18.00;;;;;23.04;65.97;101323.06;5017634;28;45347;-81
2021/09/05 02:57:06;;;;;;;;;19.00;16.75;;;;;23.04;66.19;101328.34;5017694;28;45346;-82
2021/09/05 02:59:32;;;;;;;;;23.25;19.75;;;;;23.00;65.83;101316.00;5017155;28;45342;-80
2021/09/05 03:01:59;;;;;;;;;22.25;18.25;;;;;22.96;65.79;101323.03;5017615;28;45521;-81
2021/09/05 03:04:25;;;;;;;;;22.75;20.25;;;;;22.93;66.25;101315.09;5017142;28;45986;-80
2021/09/05 03:06:50;;;;;;;;;19.25;17.25;;;;;22.89;66.23;101316.00;5017315;28;45300;-80
2021/09/05 03:09:16;;;;;;;;;23.00;17.00;;;;;22.90;65.92;101324.78;5018063;28;45420;-80
2021/09/05 03:11:42;;;;;;;;;16.75;16.50;;;;;22.90;66.23;101311.59;5032641;28;45261;-80
2021/09/05 03:14:08;;;;;;;;;18.50;17.25;;;;;22.91;66.00;101319.50;5017485;28;45373;-80
2021/09/05 03:16:33;;;;;;;;;18.50;15.50;;;;;22.92;66.08;101317.75;5019342;28;45402;-79
2021/09/05 03:18:59;;;;;;;;;18.50;18.50;;;;;22.93;65.84;101317.75;5017742;28;45402;-81
2021/09/05 03:21:24;;;;;;;;;22.50;20.25;;;;;22.95;66.10;101316.00;5017104;28;45469;-79
2021/09/05 03:23:50;;;;;;;;;20.50;20.25;;;;;22.98;65.54;101315.09;5016956;28;46192;-82
2021/09/05 03:26:15;;;;;;;;;23.25;20.25;;;;;23.01;65.34;101315.13;5014938;28;45340;-82
2021/09/05 03:28:41;;;;;;;;;15.00;14.00;;;;;23.00;65.82;101316.00;5016284;28;45375;-81
2021/09/05 03:31:07;;;;;;;;;16.75;15.50;;;;;23.00;65.71;101322.16;5032778;28;45347;-81
2021/09/05 03:33:32;;;;;;;;;22.75;20.50;;;;;22.99;65.65;101325.69;5016530;28;45938;-83
2021/09/05 03:35:58;;;;;;;;;24.00;18.00;;;;;23.01;65.89;101317.75;5017253;28;45315;-84
2021/09/05 03:38:23;;;;;;;;;21.00;18.00;;;;;23.02;65.65;101314.25;5018224;28;45177;-82
2021/09/05 03:40:49;;;;;;;;;20.50;18.25;;;;;23.01;65.58;101316.00;5021622;28;45153;-86
2021/09/05 03:43:15;;;;;;;;;22.00;17.50;;;;;22.99;66.10;101314.22;5022018;28;46310;-86
2021/09/05 03:45:40;;;;;;;;;20.00;17.25;;;;;22.97;65.87;101313.34;5035540;28;45370;-83
2021/09/05 03:48:06;;;;;;;;;18.75;18.75;;;;;22.95;65.94;101310.72;5018826;28;45331;-83
2021/09/05 03:50:31;;;;;;;;;21.75;17.25;;;;;22.92;65.80;101312.47;5019972;28;45263;-82
2021/09/05 03:52:57;;;;;;;;;21.75;21.50;;;;;22.89;66.04;101316.00;5021711;28;45435;-84
2021/09/05 03:55:23;;;;;;;;;22.00;20.50;;;;;22.88;65.80;101315.09;5018266;28;45339;-83
2021/09/05 03:57:49;;;;;;;;;19.00;18.00;;;;;22.86;65.96;101308.94;5017440;28;45438;-84
2021/09/05 04:00:14;;;;;;;;;18.00;18.00;;;;;22.86;65.76;101308.06;5027567;28;45368;-83
2021/09/05 04:02:40;;;;;;;;;17.50;17.00;;;;;22.82;65.54;101308.94;5036474;28;45779;-84
2021/09/05 04:05:09;;;;;;;;;15.50;15.50;;;;;22.82;65.85;101315.09;5037617;28;45446;-87
2021/09/05 04:07:38;;;;;;;;;18.25;17.25;;;;;22.81;65.52;101313.34;5037366;28;45215;-87
2021/09/05 04:10:10;;;;;;;;;24.00;18.75;;;;;22.77;65.54;101311.56;5039157;28;45374;-80
2021/09/05 04:12:41;;;;;;;;;20.50;19.25;;;;;22.78;66.34;101320.38;5038454;28;45384;-80
2021/09/05 04:15:08;;;;;;;;;16.00;16.00;;;;;22.77;65.75;101318.59;5036354;28;45271;-81
2021/09/05 04:17:33;;;;;;;;;17.75;15.50;;;;;22.75;65.88;101325.63;5036008;28;45296;-80
2021/09/05 04:19:59;;;;;;;;;20.75;19.00;;;;;22.73;65.60;101323.00;5036319;28;45230;-78
2021/09/05 04:22:26;;;;;;;;;18.25;16.50;;;;;22.72;65.97;101324.75;5035336;28;45564;-80
2021/09/05 04:24:51;;;;;;;;;21.00;18.00;;;;;22.69;65.63;101323.88;5036530;28;45383;-78
2021/09/05 04:27:17;;;;;;;;;16.25;15.75;;;;;22.67;66.58;101318.59;5036631;28;45290;-81
2021/09/05 04:29:43;;;;;;;;;18.00;18.00;;;;;22.66;66.01;101323.84;5036080;28;45519;-79
2021/09/05 04:32:08;;;;;;;;;25.25;24.00;;;;;22.66;65.92;101331.75;5035939;28;45323;-80
2021/09/05 04:34:34;;;;;;;;;15.25;15.25;;;;;22.66;65.80;101330.03;5035548;28;45420;-79
2021/09/05 04:37:00;;;;;;;;;18.50;16.25;;;;;22.67;65.79;101322.97;5036430;28;45447;-80
2021/09/05 04:39:25;;;;;;;;;19.00;19.00;;;;;22.67;65.75;101331.78;5043324;28;45320;-80
2021/09/05 04:41:51;;;;;;;;;22.00;19.25;;;;;22.67;65.79;101341.44;5042391;28;45802;-81
2021/09/05 04:44:17;;;;;;;;;15.25;15.25;;;;;22.67;65.28;101334.44;5042166;28;45473;-81
2021/09/05 04:46:43;;;;;;;;;20.25;19.00;;;;;22.66;65.43;101337.03;5040988;28;45343;-80
2021/09/05 04:49:09;;;;;;;;;20.00;19.50;;;;;22.64;65.37;101333.50;5040814;28;45237;-80
2021/09/05 04:51:35;;;;;;;;;20.00;16.75;;;;;22.62;65.36;101349.34;5022424;28;45333;-80
2021/09/05 04:54:00;;;;;;;;;18.50;17.75;;;;;22.59;65.21;101343.19;5022199;28;45318;-81
2021/09/05 04:56:26;;;;;;;;;21.50;16.25;;;;;22.57;65.41;101345.81;5022157;28;45323;-80
2021/09/05 04:58:52;;;;;;;;;21.50;17.75;;;;;22.58;64.91;101355.47;5022647;28;45409;-82
2021/09/05 05:01:17;;;;;;;;;17.25;16.75;;;;;22.59;65.47;101357.25;5024791;28;46237;-81
2021/09/05 05:03:43;;;;;;;;;29.00;26.50;;;;;22.59;65.34;101356.38;5022269;28;45502;-83
2021/09/05 05:06:09;;;;;;;;;20.75;20.75;;;;;22.59;65.11;101359.03;5024881;28;45328;-79
2021/09/05 05:08:35;;;;;;;;;21.00;19.50;;;;;22.57;65.21;101359.91;5023064;28;45266;-80
2021/09/05 05:11:01;;;;;;;;;20.50;20.25;;;;;22.59;65.00;101365.16;5022174;28;46163;-81
2021/09/05 05:13:27;;;;;;;;;22.50;21.50;;;;;22.57;65.26;101366.91;5029471;28;45834;-81
2021/09/05 05:15:55;;;;;;;;;31.25;26.50;;;;;22.55;65.12;101372.19;5025051;28;45325;-83
2021/09/05 05:18:22;;;;;;;;;19.00;17.00;;;;;22.57;65.21;101378.38;5022087;28;45327;-82
2021/09/05 05:20:47;;;;;;;;;21.50;19.75;;;;;22.56;65.63;101378.38;5021753;28;46228;-81
2021/09/05 05:23:13;;;;;;;;;20.25;20.25;;;;;22.57;65.36;101378.38;5021567;28;45469;-84
2021/09/05 05:25:38;;;;;;;;;20.50;18.25;;;;;22.59;65.29;101381.00;5022342;28;45462;-82
2021/09/05 05:28:04;;;;;;;;;23.00;20.75;;;;;22.62;65.03;101386.31;5022131;28;45318;-82
2021/09/05 05:30:29;;;;;;;;;24.25;21.50;;;;;22.64;65.39;101381.03;5021494;28;45926;-83
2021/09/05 05:32:58;;;;;;;;;21.75;19.75;;;;;22.67;64.59;101375.75;5022772;28;45457;-85
2021/09/05 05:35:24;;;;;;;;;19.75;18.25;;;;;22.67;64.68;101383.69;5024260;28;45413;-84
2021/09/05 05:37:49;;;;;;;;;20.00;17.00;;;;;22.64;64.85;101381.91;5023746;28;45504;-87
2021/09/05 05:40:15;;;;;;;;;21.50;21.00;;;;;22.63;64.94;101382.78;5022818;28;45827;-86
2021/09/05 05:42:41;;;;;;;;;22.00;19.00;;;;;22.64;64.65;101379.28;5022241;28;45371;-87
2021/09/05 05:45:07;;;;;;;;;20.25;19.75;;;;;22.63;64.95;101380.16;5022689;28;45334;-87
2021/09/05 05:47:32;;;;;;;;;22.25;20.00;;;;;22.64;64.28;101389.84;5023578;28;45532;-82
2021/09/05 05:49:58;;;;;;;;;24.25;21.50;;;;;22.65;64.85;101386.31;5019957;28;45402;-82
2021/09/05 05:52:23;;;;;;;;;19.25;15.50;;;;;22.68;64.57;101394.22;5017873;28;45449;-82
2021/09/05 05:54:49;;;;;;;;;19.50;18.25;;;;;22.70;64.52;101391.63;5018574;28;45416;-84
2021/09/05 05:57:15;;;;;;;;;20.50;17.50;;;;;22.73;64.41;101391.63;5018323;28;45371;-85
2021/09/05 05:59:40;;;;;;;;;14.25;14.25;;;;;22.74;64.18;101398.66;5028452;28;46041;-81
2021/09/05 06:02:06;;;;;;;;;20.25;17.50;;;;;22.73;63.83;101400.44;5041852;28;45417;-81
2021/09/05 06:04:31;;;;;;;;;16.25;16.25;;;;;22.70;63.92;101397.75;5040234;28;45329;-83
2021/09/05 06:06:59;;;;;;;;;22.00;21.75;;;;;22.69;63.94;101403.91;5046570;28;45240;-81
2021/09/05 06:09:24;;;;;;;;;22.75;21.00;;;;;22.66;64.08;101403.03;5040859;28;46769;-83
2021/09/05 06:11:50;;;;;;;;;19.75;18.25;;;;;22.66;64.13;101403.03;5043022;28;45430;-83
2021/09/05 06:14:16;;;;;;;;;22.25;19.00;;;;;22.67;64.24;101405.69;5039197;28;45240;-83
2021/09/05 06:16:41;;;;;;;;;19.50;19.50;;;;;22.67;64.06;101410.97;5038464;28;45255;-83
2021/09/05 06:19:07;;;;;;;;;21.00;18.50;;;;;22.68;63.91;101407.44;5034369;28;46182;-84
2021/09/05 06:21:33;;;;;;;;;22.00;19.75;;;;;22.72;63.78;101411.00;5024133;28;45758;-82
2021/09/05 06:23:59;;;;;;;;;21.25;20.50;;;;;22.76;63.71;101420.66;5029747;28;45493;-83
2021/09/05 06:26:25;;;;;;;;;18.75;17.25;;;;;22.77;63.28;101425.06;5028045;28;45428;-84
2021/09/05 06:28:51;;;;;;;;;17.00;17.00;;;;;22.79;63.63;101425.97;5035918;28;45377;-83
2021/09/05 06:31:16;;;;;;;;;21.75;18.25;;;;;22.82;63.39;101435.66;5034134;28;45526;-83
2021/09/05 06:33:42;;;;;;;;;19.25;16.75;;;;;22.83;63.28;101433.03;5028932;28;45472;-85
2021/09/05 06:36:07;;;;;;;;;22.50;21.00;;;;;22.86;63.06;101445.34;5043774;28;45309;-84
2021/09/05 06:38:33;;;;;;;;;19.75;17.75;;;;;22.88;63.13;101446.25;5027734;28;45994;-82
2021/09/05 06:40:59;;;;;;;;;15.50;15.50;;;;;22.92;62.79;101450.66;5022779;28;45374;-86
2021/09/05 06:43:24;;;;;;;;;20.50;19.75;;;;;22.94;62.58;101456.81;5018499;28;45861;-82
2021/09/05 06:45:50;;;;;;;;;21.75;17.00;;;;;22.95;62.55;101448.03;5028132;28;45323;-81
2021/09/05 06:48:15;;;;;;;;;23.50;23.50;;;;;22.99;62.69;101457.75;5026440;28;45459;-81
2021/09/05 06:50:41;;;;;;;;;18.25;18.25;;;;;23.05;62.07;101456.88;5024648;28;45398;-82
2021/09/05 06:53:07;;;;;;;;;19.75;15.75;;;;;23.11;62.13;101461.31;5029155;28;45200;-82
2021/09/05 06:55:33;;;;;;;;;17.75;16.00;;;;;23.16;62.06;101462.19;5032473;28;45230;-82
2021/09/05 06:57:58;;;;;;;;;20.75;18.25;;;;;23.21;61.83;101462.22;5041178;28;45440;-82
2021/09/05 07:00:24;;;;;;;;;24.25;23.00;;;;;23.25;61.64;101471.94;5040145;28;45522;-82
2021/09/05 07:02:49;;;;;;;;;21.00;20.00;;;;;23.26;61.11;101474.56;5038539;28;45388;-86
2021/09/05 07:05:15;;;;;;;;;21.50;20.50;;;;;23.27;61.05;101476.34;5032296;28;45377;-89
2021/09/05 07:07:40;;;;;;;;;20.50;20.00;;;;;23.28;61.17;101482.47;5033051;28;46068;-83
2021/09/05 07:10:07;;;;;;;;;21.75;19.50;;;;;23.30;60.81;101475.44;5020806;28;45438;-88
2021/09/05 07:12:32;;;;;;;;;19.25;18.50;;;;;23.32;60.81;101471.06;5025239;28;45326;-85
2021/09/05 07:14:58;;;;;;;;;21.75;17.25;;;;;23.34;60.40;101471.94;5038320;28;45309;-86
2021/09/05 07:17:23;;;;;;;;;23.25;20.50;;;;;23.33;60.75;101463.13;5018949;28;47497;-86
2021/09/05 07:19:49;;;;;;;;;20.25;16.50;;;;;23.36;60.78;101477.22;5028070;28;45324;-85
2021/09/05 07:22:15;;;;;;;;;24.25;20.50;;;;;23.36;60.59;101472.84;5042299;28;45453;-79
2021/09/05 07:24:40;;;;;;;;;19.50;18.25;;;;;23.34;60.84;101475.47;5039513;28;45248;-78
2021/09/05 07:27:06;;;;;;;;;25.25;21.25;;;;;23.32;60.54;101473.69;5037014;28;46599;-78
2021/09/05 07:29:32;;;;;;;;;22.50;20.50;;;;;23.30;60.85;101478.09;5035849;28;45327;-77
2021/09/05 07:31:57;;;;;;;;;21.00;16.50;;;;;23.27;60.30;101472.81;5034442;28;45417;-81
2021/09/05 07:34:23;;;;;;;;;20.25;16.75;;;;;23.26;60.70;101484.25;5036456;28;45253;-82
2021/09/05 07:36:49;;;;;;;;;22.50;18.00;;;;;23.22;60.61;101477.19;5036044;28;46141;-83
2021/09/05 07:39:15;;;;;;;;;18.50;18.00;;;;;23.20;60.86;101485.13;5021261;28;45362;-86
2021/09/05 07:41:40;;;;;;;;;23.25;20.50;;;;;23.20;60.71;101487.78;5031240;28;45398;-81
2021/09/05 07:44:06;;;;;;;;;20.50;17.75;;;;;23.19;60.89;101489.50;5028775;28;45518;-85
2021/09/05 07:46:32;;;;;;;;;25.00;20.50;;;;;23.16;60.95;101492.09;5018303;28;46091;-87
2021/09/05 07:48:57;;;;;;;;;16.75;16.00;;;;;23.21;61.07;101497.47;5039157;28;45424;-85
2021/09/05 07:51:26;;;;;;;;;22.75;21.25;;;;;23.23;61.02;101494.81;5037625;28;45229;-89
2021/09/05 07:53:53;;;;;;;;;22.50;21.25;;;;;23.21;60.52;101500.09;5034349;28;45339;-82
2021/09/05 07:56:19;;;;;;;;;23.25;21.00;;;;;23.25;60.70;101507.16;5024348;28;45512;-84
2021/09/05 07:58:47;;;;;;;;;20.75;20.25;;;;;23.25;60.52;101511.56;5019320;28;45425;-83
2021/09/05 08:01:13;;;;;;;;;26.25;23.50;;;;;23.26;60.51;101502.75;5018616;28;45481;-84
2021/09/05 08:03:39;;;;;;;;;20.25;20.25;;;;;23.26;60.19;101511.56;5032439;28;45491;-84
2021/09/05 08:06:06;;;;;;;;;26.25;23.00;;;;;23.26;60.77;101513.34;5022939;28;45623;-84
2021/09/05 08:08:35;;;;;;;;;23.50;20.00;;;;;23.27;60.57;101523.91;5029684;28;45711;-84
2021/09/05 08:11:01;;;;;;;;;20.50;18.25;;;;;23.31;60.85;101524.78;5019716;28;45275;-84
2021/09/05 08:13:26;;;;;;;;;25.50;22.25;;;;;23.30;60.94;101521.28;5015926;28;45356;-83
2021/09/05 08:15:52;;;;;;;;;22.00;19.25;;;;;23.31;60.49;101524.78;5037190;28;46125;-83
2021/09/05 08:18:17;;;;;;;;;25.00;23.25;;;;;23.30;60.58;101528.28;5042035;28;45315;-84
2021/09/05 08:20:43;;;;;;;;;21.25;20.25;;;;;23.30;61.08;101526.56;5031670;28;45286;-84
2021/09/05 08:23:09;;;;;;;;;26.50;24.25;;;;;23.30;60.64;101523.91;5034476;28;45569;-84
2021/09/05 08:25:34;;;;;;;;;28.25;25.75;;;;;23.33;60.83;101534.47;5029193;28;45504;-84
2021/09/05 08:28:00;;;;;;;;;28.00;23.25;;;;;23.33;61.10;101529.19;5027822;28;45403;-89
2021/09/05 08:30:25;;;;;;;;;27.50;24.75;;;;;23.36;60.56;101536.25;5022663;28;45501;-85
2021/09/05 08:32:51;;;;;;;;;27.25;22.50;;;;;23.36;60.97;101530.06;5016643;28;45419;-85
2021/09/05 08:35:16;;;;;;;;;29.50;27.50;;;;;23.37;60.56;101538.03;5015543;28;45284;-84
2021/09/05 08:37:42;;;;;;;;;25.75;21.75;;;;;23.39;60.55;101540.66;5015285;28;45458;-83
2021/09/05 08:40:08;;;;;;;;;32.50;28.50;;;;;23.37;60.66;101540.66;5015793;28;45266;-84
2021/09/05 08:42:35;;;;;;;;;35.75;30.75;;;;;23.41;60.77;101542.44;5030677;28;45354;-84
2021/09/05 08:45:03;;;;;;;;;18.00;15.75;;;;;23.43;61.13;101535.38;5020963;28;46175;-84
2021/09/05 08:47:33;;;;;;;;;28.25;27.75;;;;;23.45;60.85;101538.03;5032385;28;45685;-84
2021/09/05 08:50:04;;;;;;;;;27.50;23.75;;;;;23.47;60.29;101544.22;5015779;28;45359;-85
2021/09/05 08:52:29;;;;;;;;;31.00;26.00;;;;;23.46;60.23;101540.69;5015435;28;45762;-85
2021/09/05 08:54:55;;;;;;;;;29.25;27.25;;;;;23.49;60.32;101545.09;5015327;28;45833;-84
2021/09/05 08:57:21;;;;;;;;;29.25;26.75;;;;;23.50;60.14;101541.59;5021280;28;45384;-88
2021/09/05 08:59:46;;;;;;;;;31.75;29.75;;;;;23.53;60.43;101541.59;5036207;28;45255;-88
2021/09/05 09:02:12;;;;;;;;;28.50;26.50;;;;;23.54;59.99;101539.81;5036668;28;45342;-88
2021/09/05 09:04:42;;;;;;;;;22.75;20.00;;;;;23.52;59.69;101546.84;5036010;28;45933;-87
2021/09/05 09:07:17;;;;;;;;;28.25;25.75;;;;;23.53;60.59;101544.25;5030566;28;45266;-86
2021/09/05 09:09:56;;;;;;;;;30.75;27.50;;;;;23.56;60.34;101549.50;5018027;28;45326;-84
2021/09/05 09:12:41;;;;;;;;;28.00;26.00;;;;;23.60;60.15;101553.03;5019145;28;45149;-85
2021/09/05 09:15:26;;;;;;;;;29.25;28.50;;;;;23.63;60.80;101551.31;5017898;28;45294;-85
2021/09/05 09:18:00;;;;;;;;;35.50;30.25;;;;;23.65;59.96;101559.25;5015655;28;45253;-87
2021/09/05 09:20:33;;;;;;;;;28.50;26.00;;;;;23.70;60.71;101559.25;5030652;28;45392;-88
2021/09/05 09:23:13;;;;;;;;;30.25;27.25;;;;;23.73;60.42;101562.78;5016219;28;45384;-88
2021/09/05 09:25:51;;;;;;;;;26.50;26.00;;;;;23.76;60.25;101552.22;5017317;28;45350;-88
2021/09/05 09:28:36;;;;;;;;;27.50;24.25;;;;;23.80;59.91;101554.00;5020144;28;45938;-85
2021/09/05 09:31:13;;;;;;;;;21.00;19.75;;;;;23.84;60.57;101554.88;5037879;28;45365;-85
2021/09/05 09:33:40;;;;;;;;;26.00;24.75;;;;;23.87;60.02;101548.69;5038332;28;45321;-86
2021/09/05 09:36:07;;;;;;;;;21.50;19.50;;;;;23.90;59.61;101552.22;5036988;28;48070;-86
2021/09/05 09:38:34;;;;;;;;;27.50;26.50;;;;;23.94;59.58;101554.00;5043668;28;45702;-88
2021/09/05 09:41:12;;;;;;;;;29.50;27.75;;;;;23.96;59.43;101546.09;5044666;28;45411;-85
2021/09/05 09:43:55;;;;;;;;;26.00;22.75;;;;;24.00;59.83;101553.16;5048508;28;45265;-85
2021/09/05 09:46:29;;;;;;;;;21.75;21.50;;;;;24.03;59.75;101546.97;5041030;28;45361;-85
2021/09/05 09:48:57;;;;;;;;;30.50;30.00;;;;;24.05;59.89;101542.59;5052849;28;45351;-85
2021/09/05 09:51:24;;;;;;;;;29.75;26.00;;;;;24.09;59.96;101541.69;5025426;28;45346;-85
2021/09/05 09:53:50;;;;;;;;;25.25;25.25;;;;;24.14;59.43;101552.25;5018151;28;45598;-84
2021/09/05 09:56:17;;;;;;;;;29.00;26.50;;;;;24.16;59.64;101547.84;5017906;28;45472;-84
2021/09/05 09:58:44;;;;;;;;;24.75;22.00;;;;;24.20;58.73;101545.22;5019135;28;45788;-87
2021/09/05 10:01:15;;;;;;;;;26.50;26.50;;;;;24.22;58.90;101543.44;5017846;28;45317;-86
2021/09/05 10:03:42;;;;;;;;;24.75;24.00;;;;;24.25;58.82;101547.84;5018944;28;45371;-87
2021/09/05 10:06:12;;;;;;;;;27.50;23.75;;;;;24.28;59.12;101550.50;5021627;28;45320;-88
2021/09/05 10:08:42;;;;;;;;;23.75;22.00;;;;;24.32;58.70;101544.34;5023185;28;45388;-88
2021/09/05 10:11:10;;;;;;;;;27.50;24.75;;;;;24.33;58.54;101543.47;5022328;28;45293;-86
2021/09/05 10:13:39;;;;;;;;;27.00;23.25;;;;;24.36;58.55;101540.78;5020703;28;45338;-83
2021/09/05 10:16:05;;;;;;;;;24.00;23.00;;;;;24.41;58.70;101546.97;5018569;28;45432;-84
2021/09/05 10:18:35;;;;;;;;;33.00;30.25;;;;;24.45;58.16;101547.84;5017592;28;45224;-84
2021/09/05 10:21:03;;;;;;;;;25.25;24.25;;;;;24.50;58.15;101537.25;5016385;28;45470;-87
2021/09/05 10:23:34;;;;;;;;;29.75;27.50;;;;;24.52;57.67;101540.78;5032846;28;45630;-85
2021/09/05 10:26:11;;;;;;;;;23.00;21.00;;;;;24.56;57.69;101537.25;5018559;28;46255;-88
2021/09/05 10:28:40;;;;;;;;;23.75;22.50;;;;;24.60;57.11;101533.72;5018643;28;45816;-88
2021/09/05 10:31:10;;;;;;;;;24.75;21.75;;;;;24.61;57.97;101540.75;5018699;28;45374;-88
2021/09/05 10:33:38;;;;;;;;;23.50;22.25;;;;;24.64;57.24;101534.56;5025315;28;45338;-87
2021/09/05 10:36:05;;;;;;;;;26.25;20.00;;;;;24.65;57.78;101536.34;5024160;28;45632;-85
2021/09/05 10:38:36;;;;;;;;;20.50;20.25;;;;;24.70;57.57;101540.78;5033915;28;45220;-84
2021/09/05 10:41:08;;;;;;;;;25.50;22.00;;;;;24.74;57.12;101539.00;5037054;28;45444;-84
2021/09/05 10:43:49;;;;;;;;;22.25;20.50;;;;;24.81;57.07;101535.47;5036992;28;45401;-83
2021/09/05 10:46:27;;;;;;;;;19.00;19.00;;;;;24.86;56.82;101535.44;5036957;28;45977;-84
2021/09/05 10:48:55;;;;;;;;;19.50;19.50;;;;;24.91;57.00;101532.78;5035445;28;45871;-84
2021/09/05 10:51:26;;;;;;;;;23.75;21.75;;;;;24.91;57.64;101520.41;5034619;28;45419;-82
2021/09/05 10:54:04;;;;;;;;;23.00;20.00;;;;;24.93;57.71;101526.59;5017537;28;45216;-83
2021/09/05 10:56:36;;;;;;;;;24.25;21.00;;;;;24.94;58.13;101523.06;5016995;28;45373;-82
2021/09/05 10:59:07;;;;;;;;;27.50;27.00;;;;;24.95;57.11;101524.81;5019832;28;45398;-83
2021/09/05 11:01:34;;;;;;;;;36.25;31.25;;;;;24.98;56.11;101524.81;5023288;28;45231;-83
2021/09/05 11:06:53;;;;;;;;;190.25;174.00;;;;;25.11;55.80;101530.94;5019786;28;45323;-85
2021/09/05 11:09:19;;;;;;;;;153.00;138.50;;;;;25.14;56.55;101522.97;5021308;28;45469;-85
2021/09/05 11:12:07;;;;;;;;;43.50;36.00;;;;;25.19;55.11;101523.81;5038453;28;45715;-85